Time;durP1;ratioP1;P1;durP2;ratioP2;P2;SDS_P1;SDS_P2;PMS_P1;PMS_P2;Temp;Humidity;BMP_temperature;BMP_pressure;BME280_temperature;BME280_humidity;BME280_pressure;Samples;Min_cycle;Max_cycle;Signal;HPM_P1;HPM_P2
2021/09/03 00:01:04;;;;;;;19.30;10.00;;;13.80;1.00;;;;;;5032990;28;20483;-79
2021/09/03 00:03:30;;;;;;;22.47;10.30;;;13.80;1.00;;;;;;5031556;28;20423;-79
2021/09/03 00:05:56;;;;;;;16.53;9.63;;;13.80;1.00;;;;;;5033014;28;20474;-79
2021/09/03 00:08:28;;;;;;;17.80;9.70;;;13.80;1.00;;;;;;5029210;28;20511;-79
2021/09/03 00:10:54;;;;;;;20.60;9.77;;;13.80;1.00;;;;;;5033726;28;20407;-78
2021/09/03 00:13:22;;;;;;;16.50;10.07;;;;;;;;;;5033123;28;20407;-79
2021/09/03 00:15:52;;;;;;;23.83;10.60;;;13.80;1.00;;;;;;5016087;28;20196;-79
2021/09/03 00:18:39;;;;;;;20.53;10.30;;;13.80;1.00;;;;;;5015682;28;20937;-79
2021/09/03 00:21:05;;;;;;;18.43;9.90;;;13.80;1.00;;;;;;5033771;28;20450;-79
2021/09/03 00:23:46;;;;;;;21.83;10.17;;;13.80;1.00;;;;;;5033127;28;20388;-79
2021/09/03 00:26:16;;;;;;;22.40;9.23;;;13.70;1.00;;;;;;5033944;28;20164;-77
2021/09/03 00:28:46;;;;;;;21.87;10.73;;;13.70;1.00;;;;;;5033596;28;20725;-76
2021/09/03 00:31:16;;;;;;;22.80;10.30;;;13.70;1.00;;;;;;5029871;28;20437;-76
2021/09/03 00:33:52;;;;;;;16.40;9.60;;;13.70;1.00;;;;;;5020456;28;20961;-76
2021/09/03 00:36:22;;;;;;;16.40;9.40;;;13.70;1.00;;;;;;5029433;28;20479;-76
2021/09/03 00:39:09;;;;;;;20.23;10.10;;;13.70;1.00;;;;;;5030814;28;20738;-76
2021/09/03 00:41:52;;;;;;;17.50;9.60;;;13.70;1.00;;;;;;5014990;28;20921;-77
2021/09/03 00:44:28;;;;;;;18.33;9.67;;;13.70;1.00;;;;;;5017854;28;20426;-76
2021/09/03 00:47:15;;;;;;;18.67;9.50;;;13.60;1.00;;;;;;5032617;28;20437;-77
2021/09/03 00:49:41;;;;;;;19.30;8.90;;;13.60;1.00;;;;;;5027978;28;20404;-76
2021/09/03 00:52:10;;;;;;;19.40;9.50;;;13.60;1.00;;;;;;5018285;28;20453;-77
2021/09/03 00:54:36;;;;;;;20.80;10.10;;;13.60;1.00;;;;;;5018181;28;20150;-76
2021/09/03 00:57:04;;;;;;;16.90;9.57;;;13.60;1.00;;;;;;5024746;28;20407;-77
2021/09/03 00:59:46;;;;;;;18.13;9.60;;;13.60;1.00;;;;;;5036636;28;20447;-76
2021/09/03 01:02:23;;;;;;;14.93;9.37;;;13.60;1.00;;;;;;5037910;28;20426;-76
2021/09/03 01:04:50;;;;;;;17.20;9.20;;;13.50;1.00;;;;;;5037000;28;20395;-76
2021/09/03 01:07:39;;;;;;;20.90;9.83;;;13.50;1.00;;;;;;5037235;28;20410;-76
2021/09/03 01:10:19;;;;;;;22.83;9.60;;;13.50;1.00;;;;;;5036253;28;20825;-76
2021/09/03 01:12:52;;;;;;;17.87;8.70;;;13.50;1.00;;;;;;5037100;28;20437;-79
2021/09/03 01:15:18;;;;;;;24.67;9.60;;;13.50;1.00;;;;;;5036793;28;20415;-79
2021/09/03 01:17:52;;;;;;;18.07;9.93;;;13.50;1.00;;;;;;5036872;28;20477;-79
2021/09/03 01:21:09;;;;;;;15.93;9.60;;;13.50;1.00;;;;;;5036297;28;20454;-79
2021/09/03 01:23:52;;;;;;;17.83;9.00;;;13.40;1.00;;;;;;5036778;28;20486;-79
2021/09/03 01:26:18;;;;;;;16.10;9.03;;;13.40;1.00;;;;;;5036674;28;20494;-77
2021/09/03 01:28:46;;;;;;;19.53;9.53;;;13.30;1.00;;;;;;5037377;28;20533;-76
2021/09/03 01:31:13;;;;;;;18.00;9.43;;;13.30;1.00;;;;;;5028267;28;20192;-76
2021/09/03 01:33:40;;;;;;;16.70;9.03;;;13.30;1.00;;;;;;5025348;28;20419;-76
2021/09/03 01:36:26;;;;;;;16.93;9.80;;;13.30;1.00;;;;;;5031199;28;20414;-76
2021/09/03 01:38:59;;;;;;;17.57;9.40;;;13.30;1.00;;;;;;5034646;28;20396;-76
2021/09/03 01:41:26;;;;;;;17.83;9.47;;;13.20;1.00;;;;;;5029598;28;20415;-77
2021/09/03 01:44:04;;;;;;;16.47;8.83;;;13.20;1.00;;;;;;5036113;28;20426;-76
2021/09/03 01:46:34;;;;;;;16.63;9.30;;;13.20;1.00;;;;;;5036716;28;20396;-76
2021/09/03 01:49:16;;;;;;;23.27;9.60;;;13.20;1.00;;;;;;5036786;28;20399;-77
2021/09/03 01:51:46;;;;;;;18.70;9.73;;;13.10;1.00;;;;;;5036188;28;20473;-76
2021/09/03 01:54:11;;;;;;;17.03;8.70;;;13.10;1.00;;;;;;5035251;28;20445;-76
2021/09/03 01:57:15;;;;;;;16.83;9.40;;;13.10;1.00;;;;;;5036846;28;20464;-77
2021/09/03 01:59:46;;;;;;;20.30;9.93;;;13.10;1.00;;;;;;5036199;28;20198;-76
2021/09/03 02:02:22;;;;;;;19.70;9.47;;;13.00;1.00;;;;;;5016922;28;20412;-76
2021/09/03 02:05:15;;;;;;;15.60;9.20;;;13.00;1.00;;;;;;5031691;28;20415;-77
2021/09/03 02:07:41;;;;;;;16.50;9.23;;;13.00;1.00;;;;;;5034617;28;20418;-76
2021/09/03 02:10:39;;;;;;;15.13;8.27;;;12.90;1.00;;;;;;5015257;28;20483;-76
2021/09/03 02:13:05;;;;;;;16.73;9.17;;;;;;;;;;5030708;28;20191;-79
2021/09/03 02:15:40;;;;;;;16.43;9.57;;;12.90;1.00;;;;;;5024345;28;20424;-79
2021/09/03 02:18:39;;;;;;;19.00;9.03;;;12.90;1.00;;;;;;5016008;28;20427;-80
2021/09/03 02:21:10;;;;;;;13.50;8.27;;;12.80;1.00;;;;;;5026394;28;20500;-79
2021/09/03 02:23:52;;;;;;;20.73;9.40;;;12.70;1.00;;;;;;5033670;28;20406;-79
2021/09/03 02:26:17;;;;;;;16.40;8.70;;;12.80;1.00;;;;;;5035725;28;20391;-79
2021/09/03 02:28:46;;;;;;;16.40;8.93;;;12.70;1.00;;;;;;5036381;28;20438;-76
2021/09/03 02:31:16;;;;;;;18.23;9.40;;;12.70;1.00;;;;;;5035303;28;20259;-77
2021/09/03 02:33:46;;;;;;;19.70;9.13;;;12.60;1.00;;;;;;5034658;28;20419;-76
2021/09/03 02:36:16;;;;;;;14.90;8.67;;;12.60;1.00;;;;;;5035639;28;20796;-76
2021/09/03 02:38:43;;;;;;;16.80;9.33;;;12.60;1.00;;;;;;5035863;28;20395;-76
2021/09/03 02:41:09;;;;;;;17.70;9.40;;;12.70;1.00;;;;;;5033734;28;20459;-76
2021/09/03 02:43:34;;;;;;;20.43;9.50;;;12.60;1.00;;;;;;5035947;28;20414;-76
2021/09/03 02:46:04;;;;;;;16.30;8.10;;;12.50;1.00;;;;;;5016460;28;20450;-76
2021/09/03 02:48:30;;;;;;;18.00;8.93;;;;;;;;;;5015809;28;20161;-76
2021/09/03 02:51:15;;;;;;;18.43;9.70;;;12.50;1.00;;;;;;5021736;28;20514;-76
2021/09/03 02:53:41;;;;;;;17.93;9.17;;;12.50;1.00;;;;;;5022816;28;20451;-76
2021/09/03 02:56:07;;;;;;;15.93;8.67;;;12.40;1.00;;;;;;5015451;28;20440;-76
2021/09/03 02:58:33;;;;;;;19.00;9.83;;;12.40;1.00;;;;;;5015586;28;20423;-76
2021/09/03 03:01:04;;;;;;;16.40;10.03;;;12.40;1.00;;;;;;5018055;28;20239;-76
2021/09/03 03:03:34;;;;;;;15.03;8.90;;;12.30;1.00;;;;;;5035194;28;20239;-76
2021/09/03 03:06:00;;;;;;;21.37;9.40;;;12.30;1.00;;;;;;5016830;28;20494;-76
2021/09/03 03:08:25;;;;;;;16.60;9.50;;;12.40;1.00;;;;;;5014616;28;20488;-76
2021/09/03 03:10:51;;;;;;;20.80;9.80;;;12.30;1.00;;;;;;5015031;28;20253;-76
2021/09/03 03:13:26;;;;;;;16.43;8.73;;;12.40;1.00;;;;;;5023186;28;20189;-76
2021/09/03 03:15:53;;;;;;;22.37;10.40;;;12.30;1.00;;;;;;5013587;28;20216;-76
2021/09/03 03:18:22;;;;;;;17.30;9.13;;;12.30;1.00;;;;;;5017492;28;20926;-76
2021/09/03 03:20:49;;;;;;;14.87;9.20;;;12.30;1.00;;;;;;5024483;28;20510;-76
2021/09/03 03:23:16;;;;;;;16.97;9.23;;;12.20;1.00;;;;;;5032680;28;20505;-76
2021/09/03 03:25:42;;;;;;;21.20;10.20;;;12.30;1.00;;;;;;5021379;28;20398;-76
2021/09/03 03:28:16;;;;;;;15.60;8.87;;;12.20;1.00;;;;;;5015823;28;20363;-79
2021/09/03 03:30:42;;;;;;;19.83;9.33;;;12.20;1.00;;;;;;5014904;28;20370;-79
2021/09/03 03:33:10;;;;;;;21.03;9.10;;;12.20;1.00;;;;;;5029785;28;20522;-79
2021/09/03 03:35:40;;;;;;;16.30;9.03;;;12.20;1.00;;;;;;5022825;28;20176;-79
2021/09/03 03:38:16;;;;;;;23.07;9.97;;;12.20;1.00;;;;;;5013380;28;20445;-79
2021/09/03 03:40:46;;;;;;;15.60;9.63;;;12.10;1.00;;;;;;5014445;28;20447;-79
2021/09/03 03:43:33;;;;;;;15.73;9.13;;;12.10;1.00;;;;;;5029022;28;20776;-79
2021/09/03 03:46:27;;;;;;;20.30;10.90;;;12.10;1.00;;;;;;5033729;28;20422;-79
2021/09/03 03:48:58;;;;;;;18.20;9.97;;;12.10;1.00;;;;;;5032760;28;20446;-79
2021/09/03 03:51:28;;;;;;;20.23;9.77;;;12.10;1.00;;;;;;5033481;28;20407;-79
2021/09/03 03:54:15;;;;;;;13.63;8.90;;;12.10;1.00;;;;;;5034036;28;20922;-79
2021/09/03 03:56:46;;;;;;;16.17;9.90;;;12.00;1.00;;;;;;5013601;28;20422;-79
2021/09/03 03:59:11;;;;;;;26.47;9.80;;;12.00;1.00;;;;;;5014733;28;20391;-76
2021/09/03 04:01:52;;;;;;;16.87;8.47;;;;;;;;;;5015895;28;20438;-76
2021/09/03 04:04:34;;;;;;;19.53;9.77;;;12.00;1.00;;;;;;5032811;28;20176;-76
2021/09/03 04:07:08;;;;;;;25.47;9.30;;;12.00;1.00;;;;;;5034489;28;20796;-75
2021/09/03 04:09:34;;;;;;;13.47;8.80;;;12.00;1.00;;;;;;5033995;28;20502;-76
2021/09/03 04:12:04;;;;;;;21.30;10.10;;;11.90;1.00;;;;;;5026969;28;20551;-76
2021/09/03 04:14:34;;;;;;;19.33;8.60;;;11.90;1.00;;;;;;5025498;28;20239;-78
2021/09/03 04:17:04;;;;;;;20.30;9.30;;;11.90;1.00;;;;;;5025747;28;20449;-80
2021/09/03 04:19:30;;;;;;;24.00;9.23;;;11.90;1.00;;;;;;5026234;28;20449;-81
2021/09/03 04:21:58;;;;;;;16.77;9.90;;;11.90;1.00;;;;;;5027272;28;20427;-78
2021/09/03 04:24:28;;;;;;;18.70;8.60;;;11.90;1.00;;;;;;5033266;28;20635;-78
2021/09/03 04:26:54;;;;;;;17.13;9.57;;;11.90;1.00;;;;;;5031709;28;20415;-78
2021/09/03 04:29:22;;;;;;;20.30;9.40;;;11.90;1.00;;;;;;5034280;28;20395;-77
2021/09/03 04:31:58;;;;;;;15.83;9.10;;;11.80;1.00;;;;;;5029900;28;20172;-75
2021/09/03 04:34:28;;;;;;;16.80;9.07;;;11.80;1.00;;;;;;5025371;28;20426;-76
2021/09/03 04:37:10;;;;;;;18.57;9.33;;;11.80;1.00;;;;;;5027443;28;20429;-76
2021/09/03 04:39:36;;;;;;;22.20;9.70;;;11.80;1.00;;;;;;5032875;28;20504;-76
2021/09/03 04:42:04;;;;;;;16.93;9.70;;;11.70;1.00;;;;;;5032369;28;20439;-75
2021/09/03 04:44:30;;;;;;;25.20;9.37;;;11.70;1.00;;;;;;5033145;28;20253;-78
2021/09/03 04:46:58;;;;;;;22.17;9.63;;;11.80;1.00;;;;;;5032205;28;20502;-78
2021/09/03 04:49:28;;;;;;;18.20;9.80;;;11.80;1.00;;;;;;5030055;28;20438;-78
2021/09/03 04:51:58;;;;;;;15.83;9.70;;;11.80;1.00;;;;;;5031635;28;20898;-80
2021/09/03 04:54:28;;;;;;;19.30;9.63;;;;;;;;;;5032767;28;20423;-78
2021/09/03 04:56:58;;;;;;;17.83;9.40;;;11.80;1.00;;;;;;5033303;28;20867;-78
2021/09/03 04:59:40;;;;;;;17.33;9.03;;;11.80;1.00;;;;;;5033825;28;20858;-76
2021/09/03 05:02:27;;;;;;;23.47;10.23;;;11.80;1.00;;;;;;5022856;28;20424;-75
2021/09/03 05:04:58;;;;;;;19.67;9.10;;;11.80;1.00;;;;;;5015672;28;20415;-75
2021/09/03 05:07:28;;;;;;;17.70;10.10;;;11.80;1.00;;;;;;5032861;28;20502;-79
2021/09/03 05:09:58;;;;;;;16.00;9.10;;;11.80;1.00;;;;;;5022905;28;20485;-79
2021/09/03 05:12:28;;;;;;;17.60;9.13;;;11.80;1.00;;;;;;5016538;28;20966;-79
2021/09/03 05:14:58;;;;;;;23.30;8.93;;;11.90;1.00;;;;;;5024992;28;20929;-80
2021/09/03 05:17:43;;;;;;;17.93;9.20;;;11.90;1.00;;;;;;5026038;28;21158;-80
2021/09/03 05:20:11;;;;;;;24.33;9.33;;;11.90;1.00;;;;;;5031200;28;20516;-80
2021/09/03 05:22:52;;;;;;;16.37;9.37;;;11.90;1.00;;;;;;5014412;28;20420;-80
2021/09/03 05:25:28;;;;;;;17.40;8.90;;;11.90;1.00;;;;;;5031886;28;20896;-80
2021/09/03 05:28:40;;;;;;;25.40;9.20;;;12.00;1.00;;;;;;5032542;28;20442;-80
2021/09/03 05:31:06;;;;;;;18.57;8.80;;;12.00;1.00;;;;;;5025180;28;20419;-78
2021/09/03 05:33:40;;;;;;;18.37;9.70;;;12.10;1.00;;;;;;5033714;28;20559;-79
2021/09/03 05:36:23;;;;;;;16.10;9.13;;;12.10;1.00;;;;;;5036480;28;20246;-77
2021/09/03 05:38:59;;;;;;;23.53;9.27;;;12.10;1.00;;;;;;5030866;28;20439;-80
2021/09/03 05:41:25;;;;;;;16.40;8.37;;;12.10;1.00;;;;;;5033783;28;20446;-76
2021/09/03 05:43:50;;;;;;;18.10;10.20;;;12.10;1.00;;;;;;5036803;28;20395;-77
2021/09/03 05:46:28;;;;;;;18.90;9.97;;;12.20;1.00;;;;;;5036809;28;20167;-76
2021/09/03 05:48:58;;;;;;;18.40;9.37;;;12.30;1.00;;;;;;5036548;28;20160;-76
2021/09/03 05:51:40;;;;;;;19.03;9.53;;;12.30;1.00;;;;;;5034968;28;20419;-76
2021/09/03 05:54:10;;;;;;;28.17;9.90;;;12.40;1.00;;;;;;5036363;28;20482;-76
2021/09/03 05:56:52;;;;;;;17.80;9.20;;;12.50;1.00;;;;;;5029143;28;20430;-75
2021/09/03 05:59:28;;;;;;;18.13;9.07;;;12.50;1.00;;;;;;5036758;28;20399;-78
2021/09/03 06:01:58;;;;;;;21.87;8.83;;;;;;;;;;5035441;28;20773;-78
2021/09/03 06:04:24;;;;;;;18.57;9.40;;;12.50;1.00;;;;;;5036039;28;20396;-78
2021/09/03 06:06:52;;;;;;;16.30;9.00;;;12.70;1.00;;;;;;5035891;28;20517;-78
2021/09/03 06:09:22;;;;;;;18.63;9.37;;;12.80;1.00;;;;;;5036235;28;20503;-80
2021/09/03 06:11:58;;;;;;;27.27;9.13;;;12.80;1.00;;;;;;5033085;28;20985;-78
2021/09/03 06:14:28;;;;;;;18.60;9.40;;;12.90;1.00;;;;;;5025394;28;20708;-78
2021/09/03 06:16:58;;;;;;;14.00;9.20;;;13.00;1.00;;;;;;5016414;28;20954;-78
2021/09/03 06:19:28;;;;;;;17.40;9.37;;;13.10;1.00;;;;;;5014573;28;20826;-78
2021/09/03 06:22:00;;;;;;;18.37;10.23;;;13.10;1.00;;;;;;5030396;28;20427;-78
2021/09/03 06:24:30;;;;;;;23.90;10.90;;;13.20;1.00;;;;;;5035354;28;20726;-78
2021/09/03 06:27:06;;;;;;;20.40;10.43;;;13.30;1.00;;;;;;5035922;28;20884;-78
2021/09/03 06:29:42;;;;;;;20.40;10.63;;;13.40;1.00;;;;;;5035988;28;20450;-76
2021/09/03 06:32:19;;;;;;;20.07;10.57;;;13.50;1.00;;;;;;5014667;28;20416;-76
2021/09/03 06:34:49;;;;;;;19.20;9.53;;;13.60;1.00;;;;;;5016178;28;20378;-76
2021/09/03 06:37:16;;;;;;;23.10;10.73;;;13.70;1.00;;;;;;5015864;28;20386;-76
2021/09/03 06:39:42;;;;;;;19.40;10.57;;;;;;;;;;5015749;28;20456;-76
2021/09/03 06:42:10;;;;;;;25.13;11.90;;;13.90;1.00;;;;;;5035522;28;20411;-76
2021/09/03 06:44:46;;;;;;;20.43;11.77;;;14.00;1.00;;;;;;5035931;28;20385;-78
2021/09/03 06:47:22;;;;;;;27.10;12.80;;;14.10;1.00;;;;;;5035344;28;20395;-78
2021/09/03 06:49:48;;;;;;;29.43;11.57;;;14.30;1.00;;;;;;5034954;28;20506;-78
2021/09/03 06:52:16;;;;;;;26.40;13.43;;;14.40;1.00;;;;;;5034786;28;20509;-78
2021/09/03 06:54:48;;;;;;;23.73;12.20;;;14.60;1.00;;;;;;5035084;28;20171;-78
2021/09/03 06:57:22;;;;;;;30.70;14.17;;;14.70;1.00;;;;;;5035007;28;20845;-78
2021/09/03 07:00:09;;;;;;;37.10;15.40;;;14.80;1.00;;;;;;5034530;28;20897;-77
2021/09/03 07:02:52;;;;;;;25.23;13.27;;;14.90;1.00;;;;;;5015858;28;20370;-77
2021/09/03 07:05:18;;;;;;;18.40;11.60;;;15.00;1.00;;;;;;5020150;28;20472;-76
2021/09/03 07:07:52;;;;;;;24.97;11.73;;;15.20;1.00;;;;;;5035454;28;20520;-76
2021/09/03 07:10:18;;;;;;;35.30;12.87;;;15.40;1.00;;;;;;5034702;28;20173;-76
2021/09/03 07:12:52;;;;;;;23.80;12.73;;;15.40;1.00;;;;;;5028507;28;20746;-76
2021/09/03 07:15:17;;;;;;;26.37;11.93;;;15.60;1.00;;;;;;5021389;28;20318;-78
2021/09/03 07:17:52;;;;;;;22.10;12.53;;;;;;;;;;5030739;28;20884;-78
2021/09/03 07:20:18;;;;;;;21.57;12.17;;;15.90;1.00;;;;;;5032441;28;20204;-78
2021/09/03 07:22:50;;;;;;;20.47;12.47;;;16.00;1.00;;;;;;5033204;28;20641;-78
2021/09/03 07:25:28;;;;;;;20.00;10.90;;;16.10;1.00;;;;;;5034187;28;20722;-78
2021/09/03 07:27:58;;;;;;;21.40;11.63;;;16.20;1.00;;;;;;5034691;28;20369;-78
2021/09/03 07:30:28;;;;;;;21.90;10.90;;;16.30;1.00;;;;;;5020312;28;20549;-80
2021/09/03 07:32:53;;;;;;;20.23;10.63;;;16.40;1.00;;;;;;5031793;28;20438;-79
2021/09/03 07:35:22;;;;;;;37.33;11.10;;;16.40;1.00;;;;;;5034583;28;20396;-78
2021/09/03 07:37:58;;;;;;;20.47;10.30;;;16.50;1.00;;;;;;5032167;28;20552;-78
2021/09/03 07:40:28;;;;;;;34.03;11.70;;;16.60;1.00;;;;;;5023027;28;20523;-78
2021/09/03 07:43:06;;;;;;;20.70;10.70;;;;;;;;;;5034244;28;20402;-78
2021/09/03 07:45:35;;;;;;;32.73;10.77;;;16.80;1.00;;;;;;5033241;28;20415;-78
2021/09/03 07:48:10;;;;;;;19.17;10.80;;;17.00;1.00;;;;;;5034516;28;20399;-78
2021/09/03 07:50:36;;;;;;;24.30;11.50;;;17.00;1.00;;;;;;5032907;28;20481;-78
2021/09/03 07:53:04;;;;;;;19.10;10.30;;;17.10;1.00;;;;;;5033104;28;20410;-78
2021/09/03 07:55:40;;;;;;;17.50;10.10;;;17.20;1.00;;;;;;5014240;28;20163;-78
2021/09/03 07:58:23;;;;;;;18.37;10.73;;;;;;;;;;5014222;28;20382;-78
2021/09/03 08:00:48;;;;;;;18.77;9.40;;;17.40;1.00;;;;;;5020029;28;20529;-76
2021/09/03 08:03:22;;;;;;;14.80;9.03;;;;;;;;;;5034069;28;20428;-76
2021/09/03 08:05:48;;;;;;;15.70;9.17;;;17.60;1.00;;;;;;5033422;28;20394;-76
2021/09/03 08:08:22;;;;;;;15.57;8.97;;;17.60;1.00;;;;;;5034073;28;20426;-76
2021/09/03 08:10:48;;;;;;;14.17;8.80;;;17.90;1.00;;;;;;5020040;28;20765;-76
2021/09/03 08:13:28;;;;;;;14.10;8.30;;;18.00;1.00;;;;;;5022153;28;20466;-77
2021/09/03 08:15:58;;;;;;;13.73;9.30;;;18.20;1.00;;;;;;5027761;28;20484;-78
2021/09/03 08:18:24;;;;;;;13.83;8.80;;;18.30;1.00;;;;;;5013811;28;20508;-78
2021/09/03 08:20:52;;;;;;;12.80;7.90;;;18.50;1.00;;;;;;5015916;28;20549;-78
2021/09/03 08:23:22;;;;;;;18.97;8.70;;;18.60;1.00;;;;;;5013650;28;20616;-78
2021/09/03 08:25:48;;;;;;;13.60;8.70;;;;;;;;;;5015999;28;20754;-78
2021/09/03 08:28:13;;;;;;;20.70;8.53;;;18.80;1.00;;;;;;5019088;28;20746;-78
2021/09/03 08:30:39;;;;;;;15.33;8.67;;;18.80;1.00;;;;;;5030000;28;20451;-78
2021/09/03 08:33:05;;;;;;;16.23;8.43;;;18.80;1.00;;;;;;5031788;28;20685;-78
2021/09/03 08:35:30;;;;;;;14.10;7.63;;;18.90;1.00;;;;;;5032734;28;20175;-78
2021/09/03 08:37:58;;;;;;;11.83;7.60;;;19.10;1.00;;;;;;5032226;28;20234;-78
2021/09/03 08:40:23;;;;;;;11.07;7.73;;;19.10;1.00;;;;;;5030728;28;20196;-79
2021/09/03 08:42:49;;;;;;;13.73;7.50;;;19.20;1.00;;;;;;5013053;28;20410;-78
2021/09/03 08:45:15;;;;;;;19.30;7.10;;;19.40;1.00;;;;;;5020629;28;20171;-77
2021/09/03 08:47:43;;;;;;;16.50;7.63;;;19.30;1.00;;;;;;5032042;28;20207;-77
2021/09/03 08:50:10;;;;;;;10.47;5.73;;;19.40;1.00;;;;;;5031422;28;20795;-77
2021/09/03 08:52:38;;;;;;;15.60;6.30;;;19.50;1.00;;;;;;5032084;28;20522;-77
2021/09/03 08:55:06;;;;;;;17.90;7.37;;;19.60;1.00;;;;;;5031872;28;20430;-77
2021/09/03 08:57:32;;;;;;;11.80;6.63;;;;;;;;;;5025587;28;20433;-77
2021/09/03 09:00:01;;;;;;;13.53;6.70;;;19.90;1.00;;;;;;5032398;28;20541;-78
2021/09/03 09:02:27;;;;;;;8.60;6.00;;;19.90;1.00;;;;;;5033408;28;20392;-78
2021/09/03 09:04:53;;;;;;;10.10;6.43;;;20.00;1.00;;;;;;5035967;28;20445;-78
2021/09/03 09:07:26;;;;;;;12.53;6.20;;;20.10;1.00;;;;;;5028974;28;20451;-78
2021/09/03 09:09:51;;;;;;;13.50;7.50;;;20.10;1.00;;;;;;5024168;28;20176;-78
2021/09/03 09:12:19;;;;;;;9.60;5.57;;;20.20;1.00;;;;;;5017354;28;20436;-78
2021/09/03 09:15:08;;;;;;;11.43;6.70;;;20.30;1.00;;;;;;5027846;28;20632;-78
2021/09/03 09:17:35;;;;;;;9.50;6.17;;;20.40;1.00;;;;;;5018199;28;20436;-77
2021/09/03 09:20:09;;;;;;;13.63;6.47;;;20.70;1.00;;;;;;5019961;28;20550;-78
2021/09/03 09:22:56;;;;;;;9.77;6.20;;;20.80;1.00;;;;;;5036191;28;20434;-78
2021/09/03 09:25:25;;;;;;;9.20;6.10;;;20.80;1.00;;;;;;5031614;28;20431;-76
2021/09/03 09:28:20;;;;;;;8.17;5.70;;;21.00;1.00;;;;;;5030211;28;20486;-77
2021/09/03 09:30:48;;;;;;;9.23;5.93;;;21.10;1.00;;;;;;5031224;28;20433;-81
2021/09/03 09:33:20;;;;;;;11.40;6.07;;;21.20;1.00;;;;;;5034742;28;20416;-76
2021/09/03 09:36:00;;;;;;;6.97;5.40;;;21.20;1.00;;;;;;5032837;28;20422;-79
2021/09/03 09:38:32;;;;;;;8.90;5.53;;;21.50;1.00;;;;;;5029887;28;20417;-77
2021/09/03 09:41:00;;;;;;;7.77;5.00;;;21.60;1.00;;;;;;5032478;28;20438;-77
2021/09/03 09:43:32;;;;;;;9.50;5.87;;;21.60;1.00;;;;;;5035802;28;20441;-76
2021/09/03 09:46:07;;;;;;;7.40;5.13;;;21.70;1.00;;;;;;5037274;28;20393;-76
2021/09/03 09:48:49;;;;;;;12.27;5.37;;;21.70;1.00;;;;;;5036872;28;20397;-76
2021/09/03 09:51:50;;;;;;;7.87;5.50;;;21.80;1.00;;;;;;5016651;28;21090;-76
2021/09/03 09:54:24;;;;;;;8.40;4.67;;;21.90;1.00;;;;;;5016557;28;20396;-77
2021/09/03 09:57:10;;;;;;;8.43;6.03;;;21.80;1.00;;;;;;5016853;28;20403;-79
2021/09/03 09:59:36;;;;;;;5.70;4.57;;;22.00;1.00;;;;;;5025951;28;20457;-78
2021/09/03 10:02:16;;;;;;;7.53;5.40;;;22.10;1.00;;;;;;5037127;28;20379;-78
2021/09/03 10:04:43;;;;;;;7.43;5.07;;;22.10;1.00;;;;;;5033929;28;20178;-78
2021/09/03 10:07:09;;;;;;;7.77;5.10;;;22.30;1.00;;;;;;5035957;28;20498;-78
2021/09/03 10:09:47;;;;;;;7.10;5.53;;;22.40;1.00;;;;;;5033540;28;20853;-79
2021/09/03 10:12:16;;;;;;;7.40;4.70;;;22.50;1.00;;;;;;5036404;28;20406;-77
2021/09/03 10:14:42;;;;;;;8.13;4.67;;;22.60;1.00;;;;;;5035319;28;20395;-77
2021/09/03 10:17:11;;;;;;;8.40;5.50;;;22.80;1.00;;;;;;5036794;28;20937;-76
2021/09/03 10:19:41;;;;;;;8.93;5.53;;;22.90;1.00;;;;;;5035450;28;20466;-76
2021/09/03 10:22:12;;;;;;;7.93;4.97;;;22.90;1.00;;;;;;5034685;28;20882;-76
2021/09/03 10:24:42;;;;;;;11.43;5.07;;;23.10;1.00;;;;;;5030681;28;20432;-75
2021/09/03 10:27:09;;;;;;;5.60;4.47;;;;;;;;;;5034212;28;20507;-78
2021/09/03 10:29:38;;;;;;;6.40;4.83;;;23.30;1.00;;;;;;5028082;28;20802;-79
2021/09/03 10:32:08;;;;;;;7.03;4.90;;;;;;;;;;5035372;28;20449;-79
2021/09/03 10:34:53;;;;;;;12.13;4.37;;;23.50;1.00;;;;;;5018213;28;20409;-79
2021/09/03 10:37:20;;;;;;;6.10;4.67;;;23.50;1.00;;;;;;5015589;28;20386;-80
2021/09/03 10:39:47;;;;;;;6.53;4.27;;;23.60;1.00;;;;;;5014782;28;20460;-79
2021/09/03 10:42:38;;;;;;;10.20;4.20;;;23.60;1.00;;;;;;5015358;28;20762;-79
2021/09/03 10:45:31;;;;;;;6.63;4.23;;;23.70;1.00;;;;;;5014923;28;20393;-79
2021/09/03 10:48:08;;;;;;;6.03;4.30;;;23.70;1.00;;;;;;5013851;28;20407;-77
2021/09/03 10:50:50;;;;;;;5.67;4.40;;;24.00;1.00;;;;;;5014667;28;20883;-77
2021/09/03 10:53:24;;;;;;;6.40;4.10;;;24.10;1.00;;;;;;5014630;28;20402;-77
2021/09/03 10:55:52;;;;;;;4.20;3.80;;;24.00;1.00;;;;;;5013388;28;20414;-77
2021/09/03 10:58:36;;;;;;;10.37;5.07;;;24.20;1.00;;;;;;5014787;28;20429;-77
2021/09/03 11:01:11;;;;;;;6.17;4.40;;;24.30;1.00;;;;;;5014464;28;20937;-77
2021/09/03 11:03:51;;;;;;;7.20;4.47;;;24.40;1.00;;;;;;5014616;28;20529;-79
2021/09/03 11:06:23;;;;;;;6.33;3.70;;;24.50;1.00;;;;;;5014353;28;20395;-79
2021/09/03 11:08:54;;;;;;;7.40;4.73;;;24.40;1.00;;;;;;5014689;28;20424;-79
2021/09/03 11:11:37;;;;;;;4.53;3.67;;;24.50;1.00;;;;;;5033652;28;20417;-79
2021/09/03 11:14:18;;;;;;;5.63;4.37;;;24.60;1.00;;;;;;5034102;28;20371;-79
2021/09/03 11:16:57;;;;;;;11.43;4.23;;;24.60;1.00;;;;;;5034332;28;20459;-79
2021/09/03 11:19:34;;;;;;;5.77;4.20;;;24.70;1.00;;;;;;5033771;28;20638;-79
2021/09/03 11:22:02;;;;;;;6.33;4.00;;;24.70;1.00;;;;;;5034265;28;20477;-79
2021/09/03 11:24:34;;;;;;;5.03;4.00;;;24.70;1.00;;;;;;5032553;28;20430;-79
2021/09/03 11:27:04;;;;;;;8.27;3.30;;;24.70;1.00;;;;;;5027847;28;20849;-79
2021/09/03 11:29:41;;;;;;;5.30;3.80;;;24.70;1.00;;;;;;5013759;28;20425;-79
2021/09/03 11:32:14;;;;;;;6.13;3.63;;;24.90;1.00;;;;;;5012761;28;20422;-77
2021/09/03 11:34:40;;;;;;;6.10;3.77;;;25.00;1.00;;;;;;5013650;28;20423;-77
2021/09/03 11:37:05;;;;;;;5.00;3.53;;;25.10;1.00;;;;;;5012475;28;20914;-77
2021/09/03 11:39:33;;;;;;;6.30;3.90;;;25.10;1.00;;;;;;5012560;28;20465;-77
2021/09/03 11:42:04;;;;;;;5.87;3.80;;;25.30;1.00;;;;;;5013799;28;20235;-77
2021/09/03 11:44:30;;;;;;;4.30;3.73;;;25.30;1.00;;;;;;5013735;28;20512;-77
2021/09/03 11:46:55;;;;;;;4.80;3.70;;;25.40;1.00;;;;;;5014062;28;20966;-77
2021/09/03 11:49:22;;;;;;;5.10;3.80;;;25.40;1.00;;;;;;5013650;28;20170;-77
2021/09/03 11:52:01;;;;;;;5.70;3.80;;;25.60;1.00;;;;;;5016373;28;20183;-77
2021/09/03 11:54:34;;;;;;;5.87;3.73;;;25.60;1.00;;;;;;5033182;28;20956;-77
2021/09/03 12:00:25;;;;;;;3.90;3.50;;;25.60;1.00;;;;;;5014497;28;20495;-90
2021/09/03 12:03:10;;;;;;;4.83;3.97;;;25.80;1.00;;;;;;5015240;28;20417;-90
2021/09/03 12:05:41;;;;;;;5.37;3.80;;;25.90;1.00;;;;;;5013016;28;20510;-85
2021/09/03 12:08:45;;;;;;;5.17;4.67;;;26.00;1.00;;;;;;5019519;28;20531;-87
2021/09/03 12:17:54;;;;;;;7.23;4.43;;;26.20;1.00;;;;;;5026891;28;20535;-83
2021/09/03 12:20:20;;;;;;;5.90;4.37;;;26.20;1.00;;;;;;5021758;28;20969;-80
2021/09/03 12:23:15;;;;;;;10.53;4.23;;;;;;;;;;5032545;28;20198;-81
2021/09/03 12:26:11;;;;;;;5.30;4.20;;;26.30;1.00;;;;;;5033361;28;20415;-80
2021/09/03 12:28:45;;;;;;;6.53;4.30;;;26.30;1.00;;;;;;5033731;28;20888;-81
2021/09/03 12:31:27;;;;;;;5.30;4.20;;;26.30;1.00;;;;;;5033651;28;20425;-81
2021/09/03 12:34:34;;;;;;;14.00;4.57;;;26.30;1.00;;;;;;5030646;28;20906;-81
2021/09/03 12:37:16;;;;;;;12.40;3.90;;;26.30;1.00;;;;;;5012584;28;20487;-81
2021/09/03 12:39:52;;;;;;;4.73;3.93;;;;;;;;;;5017939;28;20450;-80
2021/09/03 12:42:18;;;;;;;5.43;4.00;;;26.30;1.00;;;;;;5017513;28;20925;-80
2021/09/03 12:44:46;;;;;;;5.50;3.83;;;26.40;1.00;;;;;;5029578;28;20449;-80
2021/09/03 12:47:16;;;;;;;4.97;4.47;;;26.30;1.00;;;;;;5017706;28;20570;-80
2021/09/03 12:50:13;;;;;;;4.53;3.67;;;26.30;1.00;;;;;;5017960;28;20399;-79
2021/09/03 12:52:49;;;;;;;7.07;4.70;;;26.40;1.00;;;;;;5025986;28;20419;-79
2021/09/03 12:55:16;;;;;;;5.57;4.63;;;26.50;1.00;;;;;;5025544;28;20412;-79
2021/09/03 12:57:46;;;;;;;7.07;4.83;;;26.60;1.00;;;;;;5017727;28;20401;-84
2021/09/03 13:03:52;;;;;;;6.10;4.73;;;26.70;1.00;;;;;;5027668;28;20861;-80
2021/09/03 13:06:44;;;;;;;5.83;4.80;;;26.70;1.00;;;;;;5021022;28;20421;-80
2021/09/03 13:10:04;;;;;;;8.80;4.37;;;26.80;1.00;;;;;;5033829;28;20438;-79
2021/09/03 13:12:46;;;;;;;6.63;4.90;;;26.70;1.00;;;;;;5033892;28;20430;-81
2021/09/03 13:15:29;;;;;;;4.20;3.80;;;26.80;1.00;;;;;;5036916;28;20860;-80
2021/09/03 13:18:40;;;;;;;4.70;4.20;;;26.80;1.00;;;;;;5023646;28;20518;-82
2021/09/03 13:21:40;;;;;;;6.13;4.07;;;26.90;1.00;;;;;;5031971;28;20481;-81
2021/09/03 13:24:11;;;;;;;5.30;3.80;;;26.90;1.00;;;;;;5036873;28;20481;-81
2021/09/03 13:26:41;;;;;;;12.00;4.20;;;27.00;1.00;;;;;;5036555;28;20411;-81
2021/09/03 13:29:10;;;;;;;5.77;4.83;;;27.00;1.00;;;;;;5052060;28;20428;-81
2021/09/03 13:31:36;;;;;;;4.93;4.10;;;27.00;1.00;;;;;;5030167;28;20421;-81
2021/09/03 13:34:04;;;;;;;4.80;4.13;;;27.10;1.00;;;;;;5017168;28;20408;-82
2021/09/03 13:36:36;;;;;;;7.53;4.00;;;27.00;1.00;;;;;;5017937;28;20402;-79
2021/09/03 13:39:22;;;;;;;5.67;4.37;;;27.00;1.00;;;;;;5036464;28;20947;-80